Joint Base McGuire-Dix-Lakehurst, New Jersey
Current Conditions -  °F | °C
As of 8:58 AM on Saturday 22 Nov 2014 (Local Time) from KWRI Reporting Station
Clear Clear  
Wind Chill: 23°   Ceiling: Unl
Heat Index: 30°   Visibility: 10mi
Dew Point: 15°   Wind: 7mph
Humidity: 54%   Direction: 240°WSW
Pressure: 30.48"   Gusts: NA
Location:  40.01°N, 74.52°W
Report Text: KWRI 221358Z AUTO 24006KT 10SM CLR M01/M09 A3048 RMK AO2 SLP326 T10101093
Loading
Personal Weather Stations






























Interactive Weather Map New forecast layout! Learn more

10-Day Weather Forecast

Advertisements
Track Severe Weather on mobile